createdAt,value
2016-10-27T00:00:00.708Z,1013.23
2016-10-27T00:01:00.722Z,1013.26
2016-10-27T00:02:00.738Z,1013.23
2016-10-27T00:03:00.755Z,1013.21
2016-10-27T00:04:00.775Z,1013.22
2016-10-27T00:05:00.788Z,1013.21
2016-10-27T00:06:00.803Z,1013.2
2016-10-27T00:07:00.824Z,1013.18
2016-10-27T00:08:00.842Z,1013.19
2016-10-27T00:09:00.854Z,1013.18
2016-10-27T00:10:00.867Z,1013.2
2016-10-27T00:11:00.890Z,1013.17
2016-10-27T00:12:00.910Z,1013.13
2016-10-27T00:13:00.922Z,1013.16
2016-10-27T00:14:00.939Z,1013.15
2016-10-27T00:15:00.954Z,1013.12
2016-10-27T00:16:00.968Z,1013.12
2016-10-27T00:17:00.991Z,1013.14
2016-10-27T00:18:01.005Z,1013.15
2016-10-27T00:19:01.025Z,1013.17
2016-10-27T00:20:01.042Z,1013.14
2016-10-27T00:21:01.060Z,1013.15
2016-10-27T00:22:01.076Z,1013.15
2016-10-27T00:23:01.088Z,1013.22
2016-10-27T00:24:01.105Z,1013.2
2016-10-27T00:25:01.126Z,1013.21
2016-10-27T00:26:01.144Z,1013.15
2016-10-27T00:27:01.155Z,1013.18
2016-10-27T00:28:01.171Z,1013.21
2016-10-27T00:29:01.188Z,1013.2
2016-10-27T00:30:01.211Z,1013.22
2016-10-27T00:31:01.226Z,1013.22
2016-10-27T00:32:01.244Z,1013.23
2016-10-27T00:33:01.263Z,1013.29
2016-10-27T00:34:01.279Z,1013.17
2016-10-27T00:35:01.293Z,1013.2
2016-10-27T00:36:01.310Z,1013.21
2016-10-27T00:37:01.327Z,1013.25
2016-10-27T00:38:01.341Z,1013.23
2016-10-27T00:39:01.358Z,1013.29
2016-10-27T00:40:01.375Z,1013.27
2016-10-27T00:41:01.393Z,1013.3
2016-10-27T00:42:01.409Z,1013.3
2016-10-27T00:43:01.428Z,1013.27
2016-10-27T00:44:01.444Z,1013.3
2016-10-27T00:45:01.456Z,1013.27
2016-10-27T00:46:01.478Z,1013.29
2016-10-27T00:47:01.496Z,1013.28
2016-10-27T00:48:01.512Z,1013.32
2016-10-27T00:49:01.527Z,1013.31
2016-10-27T00:50:01.542Z,1013.3
2016-10-27T00:51:01.557Z,1013.28
2016-10-27T00:52:01.571Z,1013.32
2016-10-27T00:53:01.593Z,1013.35
2016-10-27T00:54:01.605Z,1013.37
2016-10-27T00:55:01.624Z,1013.36
2016-10-27T00:56:01.640Z,1013.36
2016-10-27T00:57:01.661Z,1013.36
2016-10-27T00:58:01.678Z,1013.4
2016-10-27T00:59:01.694Z,1013.37
2016-10-27T01:00:01.709Z,1013.4
2016-10-27T01:01:01.723Z,1013.38
2016-10-27T01:02:01.740Z,1013.41
2016-10-27T01:03:01.761Z,1013.37
2016-10-27T01:04:01.777Z,1013.38
2016-10-27T01:05:01.795Z,1013.38
2016-10-27T01:06:01.803Z,1013.39
2016-10-27T01:07:01.829Z,1013.39
2016-10-27T01:08:01.839Z,1013.42
2016-10-27T01:09:01.860Z,1013.44
2016-10-27T01:10:01.877Z,1013.43
2016-10-27T01:11:01.887Z,1013.47
2016-10-27T01:12:01.904Z,1013.45
2016-10-27T01:13:01.926Z,1013.5
2016-10-27T01:14:01.944Z,1013.45
2016-10-27T01:15:01.956Z,1013.45
2016-10-27T01:16:01.972Z,1013.41
2016-10-27T01:17:01.996Z,1013.39
2016-10-27T01:18:02.012Z,1013.43
2016-10-27T01:19:02.022Z,1013.45
2016-10-27T01:20:02.045Z,1013.49
2016-10-27T01:21:02.059Z,1013.51
2016-10-27T01:22:02.077Z,1013.48
2016-10-27T01:23:02.086Z,1013.44
2016-10-27T01:24:02.108Z,1013.37
2016-10-27T01:25:02.125Z,1013.35
2016-10-27T01:26:02.140Z,1013.34
2016-10-27T01:27:02.160Z,1013.4
2016-10-27T01:28:02.176Z,1013.41
2016-10-27T01:29:02.187Z,1013.41
2016-10-27T01:30:02.207Z,1013.41
2016-10-27T01:31:02.227Z,1013.4
2016-10-27T01:32:02.244Z,1013.39
2016-10-27T01:33:02.255Z,1013.39
2016-10-27T01:34:02.272Z,1013.39
2016-10-27T01:35:02.288Z,1013.38
2016-10-27T01:36:02.308Z,1013.4
2016-10-27T01:37:02.323Z,1013.39
2016-10-27T01:38:02.344Z,1013.36
2016-10-27T01:39:02.359Z,1013.39
2016-10-27T01:40:02.378Z,1013.4
2016-10-27T01:41:02.393Z,1013.41
2016-10-27T01:42:02.409Z,1013.39
2016-10-27T01:43:02.428Z,1013.4
2016-10-27T01:44:02.446Z,1013.37
2016-10-27T01:45:02.461Z,1013.36
2016-10-27T01:46:02.477Z,1013.33
2016-10-27T01:47:02.493Z,1013.32
2016-10-27T01:48:02.512Z,1013.37
2016-10-27T01:49:02.528Z,1013.34
2016-10-27T01:50:02.547Z,1013.34
2016-10-27T01:51:02.564Z,1013.31
2016-10-27T01:52:02.574Z,1013.29
2016-10-27T01:53:02.595Z,1013.27
2016-10-27T01:54:02.617Z,1013.31
2016-10-27T01:55:02.631Z,1013.33
2016-10-27T01:56:02.645Z,1013.3
2016-10-27T01:57:02.657Z,1013.3
2016-10-27T01:58:02.682Z,1013.3
2016-10-27T01:59:02.698Z,1013.28
2016-10-27T02:00:02.716Z,1013.31
2016-10-27T02:01:02.733Z,1013.29
2016-10-27T02:02:02.750Z,1013.26
2016-10-27T02:03:02.767Z,1013.28
2016-10-27T02:04:02.781Z,1013.3
2016-10-27T02:05:02.800Z,1013.32
2016-10-27T02:06:02.820Z,1013.36
2016-10-27T02:07:02.832Z,1013.36
2016-10-27T02:08:02.848Z,1013.34
2016-10-27T02:09:02.860Z,1013.35
2016-10-27T02:10:02.883Z,1013.35
2016-10-27T02:11:02.896Z,1013.37
2016-10-27T02:12:02.910Z,1013.39
2016-10-27T02:13:02.931Z,1013.36
2016-10-27T02:14:02.947Z,1013.4
2016-10-27T02:15:02.965Z,1013.35
2016-10-27T02:16:02.982Z,1013.35
2016-10-27T02:17:03.001Z,1013.31
2016-10-27T02:18:03.018Z,1013.33
2016-10-27T02:19:03.031Z,1013.36
2016-10-27T02:20:03.054Z,1013.34
2016-10-27T02:21:03.066Z,1013.32
2016-10-27T02:22:03.084Z,1013.32
2016-10-27T02:23:03.105Z,1013.37
2016-10-27T02:24:03.113Z,1013.35
2016-10-27T02:25:03.134Z,1013.31
2016-10-27T02:26:03.152Z,1013.32
2016-10-27T02:27:03.170Z,1013.27
2016-10-27T02:28:03.186Z,1013.31
2016-10-27T02:29:03.197Z,1013.25
2016-10-27T02:30:03.219Z,1013.25
2016-10-27T02:31:03.231Z,1013.25
2016-10-27T02:32:03.244Z,1013.27
2016-10-27T02:33:03.262Z,1013.28
2016-10-27T02:34:03.281Z,1013.25
2016-10-27T02:35:03.302Z,1013.26
2016-10-27T02:36:03.315Z,1013.28
2016-10-27T02:37:03.332Z,1013.19
2016-10-27T02:38:03.351Z,1013.26
2016-10-27T02:39:03.366Z,1013.24
2016-10-27T02:40:03.381Z,1013.25
2016-10-27T02:41:03.401Z,1013.23
2016-10-27T02:42:03.418Z,1013.2
2016-10-27T02:43:03.436Z,1013.18
2016-10-27T02:44:03.454Z,1013.18
2016-10-27T02:45:03.467Z,1013.17
2016-10-27T02:46:03.485Z,1013.17
2016-10-27T02:47:03.503Z,1013.21
2016-10-27T02:48:03.521Z,1013.19
2016-10-27T02:49:03.536Z,1013.23
2016-10-27T02:50:03.551Z,1013.23
2016-10-27T02:51:03.573Z,1013.19
2016-10-27T02:52:03.588Z,1013.22
2016-10-27T02:53:03.606Z,1013.24
2016-10-27T02:54:03.621Z,1013.3
2016-10-27T02:55:03.640Z,1013.28
2016-10-27T02:56:03.657Z,1013.26
2016-10-27T02:57:03.670Z,1013.31
2016-10-27T02:58:03.688Z,1013.29
2016-10-27T02:59:03.709Z,1013.3
2016-10-27T03:00:03.727Z,1013.27
2016-10-27T03:01:03.740Z,1013.27
2016-10-27T03:02:03.752Z,1013.27
2016-10-27T03:03:03.773Z,1013.27
2016-10-27T03:04:03.804Z,1013.27
2016-10-27T03:05:03.810Z,1013.26
2016-10-27T03:06:03.824Z,1013.28
2016-10-27T03:07:03.837Z,1013.23
2016-10-27T03:08:03.860Z,1013.26
2016-10-27T03:09:03.873Z,1013.24
2016-10-27T03:10:03.895Z,1013.23
2016-10-27T03:11:03.912Z,1013.2
2016-10-27T03:12:03.925Z,1013.19
2016-10-27T03:13:03.939Z,1013.23
2016-10-27T03:14:03.961Z,1013.21
2016-10-27T03:15:03.976Z,1013.2
2016-10-27T03:16:03.997Z,1013.2
2016-10-27T03:17:04.008Z,1013.19
2016-10-27T03:18:04.031Z,1013.25
2016-10-27T03:19:04.046Z,1013.24
2016-10-27T03:20:04.062Z,1013.23
2016-10-27T03:21:04.082Z,1013.25
2016-10-27T03:22:04.098Z,1013.26
2016-10-27T03:23:04.115Z,1013.17
2016-10-27T03:24:04.133Z,1013.26
2016-10-27T03:25:04.143Z,1013.21
2016-10-27T03:26:04.162Z,1013.23
2016-10-27T03:27:04.177Z,1013.25
2016-10-27T03:28:04.197Z,1013.3
2016-10-27T03:29:04.213Z,1013.29
2016-10-27T03:30:04.228Z,1013.3
2016-10-27T03:31:04.250Z,1013.38
2016-10-27T03:32:04.264Z,1013.34
2016-10-27T03:33:04.285Z,1013.36
2016-10-27T03:34:04.302Z,1013.37
2016-10-27T03:35:04.313Z,1013.39
2016-10-27T03:36:04.335Z,1013.3
2016-10-27T03:37:04.347Z,1013.32
2016-10-27T03:38:04.370Z,1013.28
2016-10-27T03:39:04.382Z,1013.34
2016-10-27T03:40:04.404Z,1013.23
2016-10-27T03:41:04.422Z,1013.25
2016-10-27T03:42:04.438Z,1013.23
2016-10-27T03:43:04.456Z,1013.21
2016-10-27T03:44:04.468Z,1013.2
2016-10-27T03:45:04.488Z,1013.17
2016-10-27T03:46:04.499Z,1013.2
2016-10-27T03:47:04.523Z,1013.23
2016-10-27T03:48:04.536Z,1013.15
2016-10-27T03:49:04.557Z,1013.16
2016-10-27T03:50:04.570Z,1013.13
2016-10-27T03:51:04.593Z,1013.13
2016-10-27T03:52:04.607Z,1013.25
2016-10-27T03:53:04.621Z,1013.28
2016-10-27T03:54:04.642Z,1013.3
2016-10-27T03:55:04.659Z,1013.27
2016-10-27T03:56:04.677Z,1013.29
2016-10-27T03:57:04.687Z,1013.32
2016-10-27T03:58:04.709Z,1013.29
2016-10-27T03:59:04.724Z,1013.3
2016-10-27T04:02:04.776Z,1013.35
2016-10-27T04:03:04.789Z,1013.36
2016-10-27T04:04:04.811Z,1013.39
2016-10-27T04:05:04.827Z,1013.35
2016-10-27T04:06:04.838Z,1013.4
2016-10-27T04:07:04.859Z,1013.42
2016-10-27T04:08:04.878Z,1013.46
2016-10-27T04:09:04.893Z,1013.46
2016-10-27T04:10:04.907Z,1013.52
2016-10-27T04:11:04.929Z,1013.45
2016-10-27T04:12:04.943Z,1013.42
2016-10-27T04:13:04.958Z,1013.48
2016-10-27T04:14:04.984Z,1013.44
2016-10-27T04:15:04.998Z,1013.44
2016-10-27T04:16:05.011Z,1013.46
2016-10-27T04:17:05.033Z,1013.46
2016-10-27T04:18:05.046Z,1013.41
2016-10-27T04:19:05.063Z,1013.42
2016-10-27T04:20:05.085Z,1013.46
2016-10-27T04:21:05.100Z,1013.42
2016-10-27T04:22:05.113Z,1013.45
2016-10-27T04:23:05.133Z,1013.5
2016-10-27T04:24:05.147Z,1013.44
2016-10-27T04:25:05.167Z,1013.49
2016-10-27T04:26:05.183Z,1013.46
2016-10-27T04:27:05.202Z,1013.44
2016-10-27T04:28:05.215Z,1013.42
2016-10-27T04:29:05.231Z,1013.43
2016-10-27T04:30:05.249Z,1013.43
2016-10-27T04:31:05.266Z,1013.46
2016-10-27T04:32:05.288Z,1013.42
2016-10-27T04:33:05.306Z,1013.41
2016-10-27T04:34:05.316Z,1013.47
2016-10-27T04:35:05.339Z,1013.44
2016-10-27T04:36:05.351Z,1013.44
2016-10-27T04:37:05.366Z,1013.45
2016-10-27T04:38:05.387Z,1013.47
2016-10-27T04:39:05.401Z,1013.38
2016-10-27T04:40:05.420Z,1013.42
2016-10-27T04:41:05.437Z,1013.47
2016-10-27T04:42:05.453Z,1013.38
2016-10-27T04:43:05.474Z,1013.42
2016-10-27T04:44:05.492Z,1013.43
2016-10-27T04:45:05.509Z,1013.53
2016-10-27T04:46:05.525Z,1013.5
2016-10-27T04:47:05.537Z,1013.54
2016-10-27T04:48:05.559Z,1013.52
2016-10-27T04:49:05.570Z,1013.53
2016-10-27T04:50:05.591Z,1013.52
2016-10-27T04:51:05.605Z,1013.49
2016-10-27T04:52:05.622Z,1013.52
2016-10-27T04:53:05.644Z,1013.58
2016-10-27T04:54:05.659Z,1013.55
2016-10-27T04:55:05.673Z,1013.54
2016-10-27T04:56:05.690Z,1013.55
2016-10-27T04:57:05.712Z,1013.53
2016-10-27T04:58:05.730Z,1013.55
2016-10-27T04:59:05.740Z,1013.53
2016-10-27T05:00:05.765Z,1013.58
2016-10-27T05:01:05.781Z,1013.56
2016-10-27T05:02:05.791Z,1013.6
2016-10-27T05:03:05.809Z,1013.59
2016-10-27T05:04:05.834Z,1013.58
2016-10-27T05:05:05.848Z,1013.57
2016-10-27T05:06:05.864Z,1013.61
2016-10-27T05:07:05.882Z,1013.61
2016-10-27T05:08:05.894Z,1013.63
2016-10-27T05:09:05.916Z,1013.63
2016-10-27T05:10:05.933Z,1013.65
2016-10-27T05:11:05.948Z,1013.68
2016-10-27T05:12:05.972Z,1013.71
2016-10-27T05:13:05.985Z,1013.66
2016-10-27T05:14:06.003Z,1013.66
2016-10-27T05:15:06.019Z,1013.66
2016-10-27T05:16:06.056Z,1013.68
2016-10-27T05:17:06.051Z,1013.69
2016-10-27T05:18:06.072Z,1013.72
2016-10-27T05:19:06.090Z,1013.68
2016-10-27T05:20:06.106Z,1013.65
2016-10-27T05:21:06.116Z,1013.65
2016-10-27T05:22:06.133Z,1013.62
2016-10-27T05:23:06.156Z,1013.62
2016-10-27T05:24:06.171Z,1013.71
2016-10-27T05:25:06.190Z,1013.71
2016-10-27T05:26:06.202Z,1013.72
2016-10-27T05:27:06.218Z,1013.74
2016-10-27T05:28:06.238Z,1013.72
2016-10-27T05:29:06.254Z,1013.66
2016-10-27T05:30:06.270Z,1013.72
2016-10-27T05:31:06.286Z,1013.67
2016-10-27T05:32:06.307Z,1013.71
2016-10-27T05:33:06.321Z,1013.7
2016-10-27T05:34:06.337Z,1013.74
2016-10-27T05:35:06.355Z,1013.74
2016-10-27T05:36:06.376Z,1013.71
2016-10-27T05:37:06.392Z,1013.71
2016-10-27T05:38:06.413Z,1013.74
2016-10-27T05:39:06.427Z,1013.73
2016-10-27T05:40:06.444Z,1013.76
2016-10-27T05:41:06.456Z,1013.68
2016-10-27T05:42:06.481Z,1013.71
2016-10-27T05:43:06.494Z,1013.71
2016-10-27T05:44:06.514Z,1013.75
2016-10-27T05:45:06.530Z,1013.75
2016-10-27T05:46:06.544Z,1013.74
2016-10-27T05:47:06.565Z,1013.75
2016-10-27T05:48:06.582Z,1013.72
2016-10-27T05:49:06.593Z,1013.77
2016-10-27T05:50:06.610Z,1013.78
2016-10-27T05:51:06.631Z,1013.8
2016-10-27T05:52:06.647Z,1013.77
2016-10-27T05:53:06.666Z,1013.81
2016-10-27T05:54:06.684Z,1013.8
2016-10-27T05:55:06.700Z,1013.89
2016-10-27T05:56:06.712Z,1013.94
2016-10-27T05:57:06.733Z,1013.91
2016-10-27T05:58:06.752Z,1013.9
2016-10-27T05:59:06.769Z,1013.91
2016-10-27T06:00:06.779Z,1013.93
2016-10-27T06:01:06.796Z,1013.91
2016-10-27T06:02:06.818Z,1013.9
2016-10-27T06:03:06.837Z,1013.91
2016-10-27T06:04:06.847Z,1013.87
2016-10-27T06:05:06.864Z,1013.89
2016-10-27T06:06:06.890Z,1013.86
2016-10-27T06:07:06.902Z,1013.89
2016-10-27T06:08:06.917Z,1013.87
2016-10-27T06:09:06.935Z,1013.87
2016-10-27T06:10:06.955Z,1013.91
2016-10-27T06:11:06.970Z,1013.94
2016-10-27T06:12:06.992Z,1013.96
2016-10-27T06:13:07.004Z,1013.96
2016-10-27T06:14:07.026Z,1013.99
2016-10-27T06:15:07.038Z,1013.99
2016-10-27T06:16:07.055Z,1014.05
2016-10-27T06:17:07.073Z,1014
2016-10-27T06:18:07.092Z,1014.03
2016-10-27T06:19:07.110Z,1014.03
2016-10-27T06:20:07.126Z,1014.03
2016-10-27T06:21:07.140Z,1014.09
2016-10-27T06:22:07.161Z,1014.1
2016-10-27T06:23:07.172Z,1014.12
2016-10-27T06:24:07.194Z,1014.13
2016-10-27T06:25:07.210Z,1014.11
2016-10-27T06:26:07.228Z,1014.09
2016-10-27T06:27:07.244Z,1014.12
2016-10-27T06:28:07.256Z,1014.12
2016-10-27T06:29:07.276Z,1014.16
2016-10-27T06:30:07.295Z,1014.15
2016-10-27T06:31:07.307Z,1014.15
2016-10-27T06:32:07.327Z,1014.17
2016-10-27T06:33:07.347Z,1014.18
2016-10-27T06:34:07.364Z,1014.18
2016-10-27T06:35:07.384Z,1014.19
2016-10-27T06:36:07.395Z,1014.18
2016-10-27T06:37:07.415Z,1014.16
2016-10-27T06:38:07.435Z,1014.2
2016-10-27T06:39:07.452Z,1014.26
2016-10-27T06:40:07.470Z,1014.28
2016-10-27T06:41:07.485Z,1014.3
2016-10-27T06:42:07.503Z,1014.25
2016-10-27T06:43:07.517Z,1014.3
2016-10-27T06:44:07.537Z,1014.33
2016-10-27T06:45:07.550Z,1014.31
2016-10-27T06:46:07.564Z,1014.38
2016-10-27T06:47:07.584Z,1014.33
2016-10-27T06:48:07.601Z,1014.4
2016-10-27T06:49:07.616Z,1014.43
2016-10-27T06:50:07.639Z,1014.44
2016-10-27T06:51:07.656Z,1014.5
2016-10-27T06:52:07.669Z,1014.49
2016-10-27T06:53:07.688Z,1014.48
2016-10-27T06:54:07.702Z,1014.53
2016-10-27T06:55:07.721Z,1014.51
2016-10-27T06:56:07.739Z,1014.54
2016-10-27T06:57:07.757Z,1014.51
2016-10-27T06:58:07.769Z,1014.56
2016-10-27T06:59:07.785Z,1014.52
2016-10-27T07:00:07.806Z,1014.5
2016-10-27T07:01:07.824Z,1014.45
2016-10-27T07:02:07.844Z,1014.46
2016-10-27T07:03:07.858Z,1014.54
2016-10-27T07:04:07.871Z,1014.55
2016-10-27T07:05:07.894Z,1014.56
2016-10-27T07:06:07.908Z,1014.52
2016-10-27T07:07:07.925Z,1014.58
2016-10-27T07:08:07.946Z,1014.55
2016-10-27T07:09:07.962Z,1014.54
2016-10-27T07:10:07.978Z,1014.56
2016-10-27T07:11:07.996Z,1014.58
2016-10-27T07:12:08.007Z,1014.58
2016-10-27T07:13:08.027Z,1014.6
2016-10-27T07:14:08.049Z,1014.6
2016-10-27T07:15:08.060Z,1014.6
2016-10-27T07:16:08.078Z,1014.61
2016-10-27T07:17:08.098Z,1014.62
2016-10-27T07:18:08.113Z,1014.63
2016-10-27T07:19:08.132Z,1014.58
2016-10-27T07:20:08.146Z,1014.65
2016-10-27T07:21:08.162Z,1014.62
2016-10-27T07:22:08.179Z,1014.69
2016-10-27T07:23:08.198Z,1014.71
2016-10-27T07:24:08.213Z,1014.7
2016-10-27T07:25:08.234Z,1014.7
2016-10-27T07:26:08.250Z,1014.72
2016-10-27T07:27:08.268Z,1014.72
2016-10-27T07:28:08.278Z,1014.73
2016-10-27T07:29:08.301Z,1014.72
2016-10-27T07:30:08.311Z,1014.73
2016-10-27T07:31:08.335Z,1014.76
2016-10-27T07:32:08.351Z,1014.78
2016-10-27T07:33:08.368Z,1014.75
2016-10-27T07:34:08.387Z,1014.79
2016-10-27T07:35:08.407Z,1014.81
2016-10-27T07:36:08.422Z,1014.86
2016-10-27T07:37:08.441Z,1014.81
2016-10-27T07:38:08.454Z,1014.8
2016-10-27T07:39:08.471Z,1014.85
2016-10-27T07:40:08.489Z,1014.85
2016-10-27T07:41:08.503Z,1014.8
2016-10-27T07:42:08.521Z,1014.86
2016-10-27T07:43:08.540Z,1014.84
2016-10-27T07:44:08.555Z,1014.86
2016-10-27T07:45:08.579Z,1014.85
2016-10-27T07:46:08.594Z,1014.88
2016-10-27T07:47:08.603Z,1014.88
2016-10-27T07:48:08.630Z,1014.88
2016-10-27T07:49:08.646Z,1014.84
2016-10-27T07:50:08.665Z,1014.89
2016-10-27T07:51:08.681Z,1014.87
2016-10-27T07:52:08.697Z,1014.86
2016-10-27T07:53:08.715Z,1014.87
2016-10-27T07:54:08.730Z,1014.9
2016-10-27T07:55:08.743Z,1014.88
2016-10-27T07:56:08.765Z,1014.88
2016-10-27T07:57:08.785Z,1014.9
2016-10-27T07:58:08.799Z,1014.88
2016-10-27T07:59:08.816Z,1014.91
2016-10-27T08:00:08.837Z,1014.91
2016-10-27T08:01:08.848Z,1014.91
2016-10-27T08:02:08.865Z,1014.87
2016-10-27T08:03:08.888Z,1014.86
2016-10-27T08:04:08.904Z,1014.86
2016-10-27T08:05:08.923Z,1014.87
2016-10-27T08:06:08.939Z,1014.89
2016-10-27T08:07:08.958Z,1014.9
2016-10-27T08:08:08.973Z,1014.9
2016-10-27T08:09:08.987Z,1014.87
2016-10-27T08:10:09.007Z,1014.86
2016-10-27T08:11:09.021Z,1014.89
2016-10-27T08:12:09.038Z,1014.91
2016-10-27T08:13:09.061Z,1014.9
2016-10-27T08:14:09.079Z,1014.92
2016-10-27T08:15:09.092Z,1014.9
2016-10-27T08:16:09.114Z,1014.92
2016-10-27T08:17:09.131Z,1014.94
2016-10-27T08:18:09.150Z,1014.93
2016-10-27T08:19:09.163Z,1014.92
2016-10-27T08:20:09.183Z,1014.93
2016-10-27T08:21:09.205Z,1015
2016-10-27T08:22:09.215Z,1014.95
2016-10-27T08:23:09.234Z,1014.99
2016-10-27T08:24:09.255Z,1014.98
2016-10-27T08:25:09.271Z,1014.97
2016-10-27T08:26:09.287Z,1014.99
2016-10-27T08:27:09.303Z,1015
2016-10-27T08:28:09.320Z,1015.02
2016-10-27T08:29:09.339Z,1015.05
2016-10-27T08:30:09.357Z,1015.03
2016-10-27T08:31:09.375Z,1015.06
2016-10-27T08:32:09.391Z,1015.04
2016-10-27T08:33:09.410Z,1015.11
2016-10-27T08:34:09.426Z,1015.17
2016-10-27T08:35:09.445Z,1015.16
2016-10-27T08:36:09.462Z,1015.18
2016-10-27T08:37:09.482Z,1015.16
2016-10-27T08:38:09.496Z,1015.16
2016-10-27T08:39:09.516Z,1015.18
2016-10-27T08:40:09.532Z,1015.23
2016-10-27T08:41:09.551Z,1015.22
2016-10-27T08:42:09.568Z,1015.22
2016-10-27T08:43:09.578Z,1015.2
2016-10-27T08:44:09.605Z,1015.24
2016-10-27T08:45:09.618Z,1015.27
2016-10-27T08:46:09.639Z,1015.22
2016-10-27T08:47:09.656Z,1015.25
2016-10-27T08:48:09.670Z,1015.25
2016-10-27T08:49:09.684Z,1015.24
2016-10-27T08:50:09.707Z,1015.29
2016-10-27T08:51:09.724Z,1015.3
2016-10-27T08:52:09.744Z,1015.32
2016-10-27T08:53:09.755Z,1015.3
2016-10-27T08:54:09.776Z,1015.33
2016-10-27T08:55:09.798Z,1015.31
2016-10-27T08:56:09.812Z,1015.33
2016-10-27T08:57:09.826Z,1015.28
2016-10-27T08:58:09.847Z,1015.3
2016-10-27T08:59:09.867Z,1015.31
2016-10-27T09:00:09.883Z,1015.33
2016-10-27T09:01:09.901Z,1015.27
2016-10-27T09:02:09.916Z,1015.31
2016-10-27T09:03:09.931Z,1015.3
2016-10-27T09:04:09.950Z,1015.29
2016-10-27T09:05:09.967Z,1015.29
2016-10-27T09:06:09.984Z,1015.32
2016-10-27T09:07:10.005Z,1015.31
2016-10-27T09:08:10.019Z,1015.33
2016-10-27T09:09:10.040Z,1015.28
2016-10-27T09:10:10.059Z,1015.31
2016-10-27T09:11:10.076Z,1015.27
2016-10-27T09:12:10.092Z,1015.31
2016-10-27T09:13:10.112Z,1015.28
2016-10-27T09:14:10.124Z,1015.24
2016-10-27T09:15:10.144Z,1015.26
2016-10-27T09:16:10.162Z,1015.31
2016-10-27T09:17:10.184Z,1015.33
2016-10-27T09:18:10.198Z,1015.31
2016-10-27T09:19:10.213Z,1015.33
2016-10-27T09:20:10.235Z,1015.35
2016-10-27T09:21:10.263Z,1015.34
2016-10-27T09:22:10.270Z,1015.36
2016-10-27T09:23:10.283Z,1015.34
2016-10-27T09:24:10.299Z,1015.29
2016-10-27T09:25:10.320Z,1015.27
2016-10-27T09:26:10.337Z,1015.29
2016-10-27T09:27:10.358Z,1015.32
2016-10-27T09:28:10.373Z,1015.32
2016-10-27T09:29:10.393Z,1015.33
2016-10-27T09:30:10.412Z,1015.33
2016-10-27T09:31:10.426Z,1015.32
2016-10-27T09:32:10.446Z,1015.35
2016-10-27T09:33:10.464Z,1015.35
2016-10-27T09:34:10.483Z,1015.37
2016-10-27T09:35:10.499Z,1015.34
2016-10-27T09:36:10.514Z,1015.37
2016-10-27T09:37:10.528Z,1015.37
2016-10-27T09:38:10.556Z,1015.43
2016-10-27T09:39:10.569Z,1015.4
2016-10-27T09:40:10.588Z,1015.44
2016-10-27T09:41:10.600Z,1015.42
2016-10-27T09:42:10.623Z,1015.45
2016-10-27T09:43:10.642Z,1015.48
2016-10-27T09:44:10.661Z,1015.46
2016-10-27T09:45:10.672Z,1015.47
2016-10-27T09:46:10.693Z,1015.5
2016-10-27T09:47:10.710Z,1015.46
2016-10-27T09:48:10.730Z,1015.49
2016-10-27T09:49:10.749Z,1015.51
2016-10-27T09:50:10.765Z,1015.53
2016-10-27T09:51:10.783Z,1015.52
2016-10-27T09:52:10.795Z,1015.47
2016-10-27T09:53:10.817Z,1015.51
2016-10-27T09:54:10.832Z,1015.5
2016-10-27T09:55:10.854Z,1015.47
2016-10-27T09:56:10.873Z,1015.51
2016-10-27T09:57:10.892Z,1015.49
2016-10-27T09:58:10.903Z,1015.52
2016-10-27T09:59:10.926Z,1015.52
2016-10-27T10:00:10.942Z,1015.5
2016-10-27T10:01:10.956Z,1015.54
2016-10-27T10:02:10.974Z,1015.52
2016-10-27T10:03:10.997Z,1015.55
2016-10-27T10:04:11.011Z,1015.58
2016-10-27T10:05:11.032Z,1015.53
2016-10-27T10:06:11.047Z,1015.55
2016-10-27T10:07:11.066Z,1015.53
2016-10-27T10:08:11.083Z,1015.53
2016-10-27T10:09:11.098Z,1015.5
2016-10-27T10:10:11.123Z,1015.49
2016-10-27T10:11:11.141Z,1015.51
2016-10-27T10:12:11.151Z,1015.53
2016-10-27T10:13:11.172Z,1015.53
2016-10-27T10:14:11.195Z,1015.52
2016-10-27T10:15:11.206Z,1015.53
2016-10-27T10:16:11.238Z,1015.55
2016-10-27T10:17:11.245Z,1015.49
2016-10-27T10:18:11.265Z,1015.54
2016-10-27T10:19:11.284Z,1015.51
2016-10-27T10:20:11.294Z,1015.49
2016-10-27T10:21:11.317Z,1015.5
2016-10-27T10:22:11.332Z,1015.49
2016-10-27T10:23:11.350Z,1015.43
2016-10-27T10:24:11.367Z,1015.46
2016-10-27T10:25:11.386Z,1015.46
2016-10-27T10:26:11.430Z,1015.46
2016-10-27T10:27:11.431Z,1015.49
2016-10-27T10:28:11.470Z,1015.52
2016-10-27T10:29:11.469Z,1015.49
2016-10-27T10:30:11.480Z,1015.5
2016-10-27T10:31:11.492Z,1015.53
2016-10-27T10:32:11.519Z,1015.54
2016-10-27T10:33:11.536Z,1015.56
2016-10-27T10:34:11.547Z,1015.62
2016-10-27T10:35:11.571Z,1015.61
2016-10-27T10:36:11.590Z,1015.6
2016-10-27T10:37:11.611Z,1015.55
2016-10-27T10:38:11.623Z,1015.55
2016-10-27T10:39:11.642Z,1015.56
2016-10-27T10:40:11.661Z,1015.59
2016-10-27T10:41:11.680Z,1015.58
2016-10-27T10:42:11.696Z,1015.63
2016-10-27T10:43:11.721Z,1015.59
2016-10-27T10:44:11.738Z,1015.62
2016-10-27T10:45:11.755Z,1015.6
2016-10-27T10:46:11.770Z,1015.59
2016-10-27T10:47:11.790Z,1015.57
2016-10-27T10:48:11.813Z,1015.53
2016-10-27T10:49:11.824Z,1015.58
2016-10-27T10:50:11.845Z,1015.57
2016-10-27T10:51:11.862Z,1015.55
2016-10-27T10:52:11.884Z,1015.57
2016-10-27T10:53:11.904Z,1015.57
2016-10-27T10:54:11.919Z,1015.52
2016-10-27T10:55:11.934Z,1015.54
2016-10-27T10:56:11.958Z,1015.55
2016-10-27T10:57:11.972Z,1015.59
2016-10-27T10:58:11.991Z,1015.59
2016-10-27T10:59:12.015Z,1015.58
2016-10-27T11:00:12.030Z,1015.59
2016-10-27T11:01:12.047Z,1015.57
2016-10-27T11:02:12.064Z,1015.57
2016-10-27T11:03:12.087Z,1015.62
2016-10-27T11:04:12.103Z,1015.62
2016-10-27T11:05:12.123Z,1015.63
2016-10-27T11:06:12.147Z,1015.62
2016-10-27T11:07:12.163Z,1015.62
2016-10-27T11:08:12.176Z,1015.66
2016-10-27T11:09:12.197Z,1015.69
2016-10-27T11:10:12.211Z,1015.67
2016-10-27T11:11:12.233Z,1015.65
2016-10-27T11:12:12.251Z,1015.66
2016-10-27T11:13:12.267Z,1015.65
2016-10-27T11:14:12.291Z,1015.66
2016-10-27T11:15:12.311Z,1015.69
2016-10-27T11:16:12.327Z,1015.67
2016-10-27T11:17:12.345Z,1015.65
2016-10-27T11:18:12.363Z,1015.66
2016-10-27T11:19:12.376Z,1015.7
2016-10-27T11:20:12.399Z,1015.72
2016-10-27T11:21:12.414Z,1015.7
2016-10-27T11:22:12.440Z,1015.72
2016-10-27T11:23:12.457Z,1015.69
2016-10-27T11:24:12.476Z,1015.71
2016-10-27T11:25:12.489Z,1015.68
2016-10-27T11:26:12.506Z,1015.71
2016-10-27T11:27:12.529Z,1015.7
2016-10-27T11:28:12.547Z,1015.75
2016-10-27T11:29:12.567Z,1015.67
2016-10-27T11:30:12.587Z,1015.65
2016-10-27T11:31:12.602Z,1015.69
2016-10-27T11:32:12.619Z,1015.7
2016-10-27T11:33:12.641Z,1015.7
2016-10-27T11:34:12.661Z,1015.64
2016-10-27T11:35:12.677Z,1015.58
2016-10-27T11:36:12.696Z,1015.63
2016-10-27T11:37:12.719Z,1015.59
2016-10-27T11:38:12.735Z,1015.56
2016-10-27T11:39:12.754Z,1015.57
2016-10-27T11:40:12.772Z,1015.59
2016-10-27T11:41:12.791Z,1015.63
2016-10-27T11:42:12.807Z,1015.61
2016-10-27T11:43:12.831Z,1015.66
2016-10-27T11:44:12.848Z,1015.64
2016-10-27T11:45:12.863Z,1015.66
2016-10-27T11:46:12.886Z,1015.65
2016-10-27T11:47:12.900Z,1015.63
2016-10-27T11:48:12.921Z,1015.63
2016-10-27T11:49:12.941Z,1015.64
2016-10-27T11:50:12.958Z,1015.66
2016-10-27T11:51:12.978Z,1015.62
2016-10-27T11:52:12.992Z,1015.61
2016-10-27T11:53:13.010Z,1015.6
2016-10-27T11:54:13.036Z,1015.57
2016-10-27T11:55:13.048Z,1015.59
2016-10-27T11:56:13.070Z,1015.57
2016-10-27T11:57:13.091Z,1015.56
2016-10-27T11:58:13.110Z,1015.6
2016-10-27T11:59:13.128Z,1015.56
2016-10-27T12:00:13.144Z,1015.52
2016-10-27T12:01:13.167Z,1015.51
2016-10-27T12:02:13.185Z,1015.54
2016-10-27T12:03:13.205Z,1015.49
2016-10-27T12:04:13.218Z,1015.46
2016-10-27T12:05:13.239Z,1015.44
2016-10-27T12:06:13.254Z,1015.45
2016-10-27T12:07:13.271Z,1015.49
2016-10-27T12:08:13.294Z,1015.45
2016-10-27T12:09:13.315Z,1015.46
2016-10-27T12:10:13.332Z,1015.46